Time;durP1;ratioP1;P1;durP2;ratioP2;P2;SDS_P1;SDS_P2;PMS_P1;PMS_P2;Temp;Humidity;BMP_temperature;BMP_pressure;BME280_temperature;BME280_humidity;BME280_pressure;Samples;Min_cycle;Max_cycle;Signal;HPM_P1;HPM_P2
2023/06/23 00:00:14;;;;;;;8.40;7.70;;;17.60;99.90;;;;;;4949325;29;20210;-75
2023/06/23 00:02:43;;;;;;;9.38;8.35;;;17.60;99.90;;;;;;4944758;29;20217;-75
2023/06/23 00:05:11;;;;;;;8.85;8.05;;;17.60;99.90;;;;;;4950867;29;20218;-75
2023/06/23 00:07:39;;;;;;;8.52;7.82;;;17.60;99.90;;;;;;4949036;29;20210;-75
2023/06/23 00:10:10;;;;;;;8.93;8.23;;;17.60;99.90;;;;;;4932591;29;20205;-75
2023/06/23 00:12:41;;;;;;;8.95;8.25;;;17.60;99.90;;;;;;4948979;28;20224;-75
2023/06/23 00:15:10;;;;;;;7.55;6.95;;;17.60;99.90;;;;;;4927474;29;20208;-75
2023/06/23 00:17:38;;;;;;;7.05;6.35;;;17.50;99.90;;;;;;4935506;29;20660;-75
2023/06/23 00:20:10;;;;;;;8.02;7.25;;;17.60;99.90;;;;;;4933541;29;20205;-75
2023/06/23 00:22:38;;;;;;;6.43;5.90;;;17.70;99.90;;;;;;4950909;28;20730;-75
2023/06/23 00:25:06;;;;;;;7.05;6.35;;;17.70;99.90;;;;;;4951110;29;20234;-75
2023/06/23 00:27:34;;;;;;;6.00;5.50;;;17.60;99.90;;;;;;4951550;29;20202;-75
2023/06/23 00:30:01;;;;;;;7.85;7.13;;;17.70;99.90;;;;;;4929149;29;20205;-75
2023/06/23 00:32:28;;;;;;;7.57;6.97;;;17.70;99.90;;;;;;4929636;29;20226;-75
2023/06/23 00:35:01;;;;;;;8.20;7.10;;;17.70;99.90;;;;;;4931007;29;20194;-75
2023/06/23 00:37:30;;;;;;;7.75;7.05;;;17.70;99.90;;;;;;4934439;29;20198;-75
2023/06/23 00:39:59;;;;;;;8.50;7.70;;;17.60;99.90;;;;;;4945527;29;20206;-75
2023/06/23 00:42:27;;;;;;;8.50;7.63;;;17.50;99.90;;;;;;4930851;29;20218;-75
2023/06/23 00:44:54;;;;;;;8.48;7.57;;;17.50;99.90;;;;;;4948936;29;20228;-75
2023/06/23 00:47:22;;;;;;;8.93;8.13;;;17.40;99.90;;;;;;4953570;29;20194;-75
2023/06/23 00:49:50;;;;;;;9.35;8.38;;;17.50;99.90;;;;;;4948404;29;20686;-75
2023/06/23 00:52:18;;;;;;;9.57;7.95;;;17.40;99.90;;;;;;4949353;29;20225;-75
2023/06/23 00:54:47;;;;;;;9.45;8.07;;;17.40;99.90;;;;;;4933913;29;20202;-75
2023/06/23 00:57:14;;;;;;;10.18;9.18;;;17.40;99.90;;;;;;4952861;29;20198;-75
2023/06/23 00:59:42;;;;;;;10.15;9.15;;;17.30;99.90;;;;;;4937568;29;20186;-75
2023/06/23 01:02:09;;;;;;;8.80;8.00;;;17.40;99.90;;;;;;4938989;29;20225;-75
2023/06/23 01:04:37;;;;;;;9.48;8.05;;;17.40;99.90;;;;;;4947964;29;20302;-75
2023/06/23 01:07:14;;;;;;;8.73;7.82;;;17.40;99.90;;;;;;4954647;29;20210;-75
2023/06/23 01:09:51;;;;;;;8.68;7.88;;;17.40;99.90;;;;;;4949733;29;20191;-75
2023/06/23 01:12:27;;;;;;;9.10;8.20;;;17.40;99.90;;;;;;4930791;29;20213;-75
2023/06/23 01:15:13;;;;;;;9.02;8.13;;;17.40;99.90;;;;;;4954152;29;20198;-75
2023/06/23 01:17:45;;;;;;;9.90;8.88;;;17.40;99.90;;;;;;4951694;28;20210;-75
2023/06/23 01:20:20;;;;;;;8.98;8.20;;;17.40;99.90;;;;;;4946613;29;20194;-75
2023/06/23 01:23:16;;;;;;;9.73;8.27;;;17.40;99.90;;;;;;4943234;29;20221;-75
2023/06/23 01:25:55;;;;;;;8.95;8.15;;;17.30;99.90;;;;;;4958734;28;20206;-75
2023/06/23 01:28:47;;;;;;;10.05;9.02;;;17.30;99.90;;;;;;4947406;29;20194;-75
2023/06/23 01:31:18;;;;;;;10.23;9.23;;;17.30;99.90;;;;;;4946717;29;20207;-75
2023/06/23 01:33:49;;;;;;;9.70;8.60;;;17.30;99.90;;;;;;4948061;29;20195;-75
2023/06/23 01:40:13;;;;;;;9.98;8.88;;;17.40;99.90;;;;;;4959790;28;20181;-75
2023/06/23 01:42:43;;;;;;;11.38;9.80;;;17.40;99.90;;;;;;4944683;28;20222;-75
2023/06/23 01:45:14;;;;;;;10.93;9.82;;;17.40;99.90;;;;;;4936351;29;20213;-75
2023/06/23 01:47:48;;;;;;;10.85;9.75;;;17.40;99.90;;;;;;4939093;29;20194;-75
2023/06/23 01:50:18;;;;;;;11.52;10.20;;;17.40;99.90;;;;;;4937112;29;20220;-75
2023/06/23 01:52:46;;;;;;;11.90;9.70;;;17.40;99.90;;;;;;4952188;28;20702;-75
2023/06/23 01:55:15;;;;;;;11.30;10.20;;;17.30;99.90;;;;;;4936211;29;20220;-75
2023/06/23 01:57:44;;;;;;;11.45;10.35;;;17.30;99.90;;;;;;4936911;29;20201;-75
2023/06/23 02:00:21;;;;;;;11.85;10.65;;;17.20;99.90;;;;;;4929684;29;20220;-75
2023/06/23 02:02:50;;;;;;;13.18;11.65;;;17.30;99.90;;;;;;4950465;28;20213;-75
2023/06/23 02:05:21;;;;;;;12.93;10.68;;;17.40;99.90;;;;;;4936685;29;20220;-75
2023/06/23 02:07:50;;;;;;;12.98;11.57;;;17.30;99.90;;;;;;4937438;29;20205;-75
2023/06/23 02:10:20;;;;;;;11.93;10.82;;;17.30;99.90;;;;;;4949729;29;20652;-75
2023/06/23 02:12:49;;;;;;;11.60;10.50;;;17.30;99.90;;;;;;4946771;28;20586;-75
2023/06/23 02:15:21;;;;;;;13.40;12.02;;;17.30;99.90;;;;;;4947599;29;20198;-75
2023/06/23 02:17:50;;;;;;;14.43;12.88;;;17.40;99.90;;;;;;4946188;29;20211;-75
2023/06/23 02:20:18;;;;;;;15.35;13.75;;;17.30;99.90;;;;;;4944523;29;20210;-75
2023/06/23 02:22:49;;;;;;;13.55;12.18;;;17.40;99.90;;;;;;4949067;29;20225;-75
2023/06/23 02:25:17;;;;;;;13.55;12.25;;;17.30;99.90;;;;;;4936931;29;20217;-75
2023/06/23 02:27:46;;;;;;;12.30;11.20;;;17.40;99.90;;;;;;4952500;29;20334;-75
2023/06/23 02:30:14;;;;;;;13.70;12.23;;;17.40;99.90;;;;;;4933487;29;20213;-75
2023/06/23 02:32:43;;;;;;;13.80;12.35;;;17.40;99.90;;;;;;4937421;29;20228;-75
2023/06/23 02:35:13;;;;;;;13.82;12.48;;;17.40;99.90;;;;;;4942524;28;20715;-75
2023/06/23 02:37:43;;;;;;;13.43;11.65;;;17.50;99.90;;;;;;4930209;29;20612;-75
2023/06/23 02:40:16;;;;;;;11.32;10.18;;;17.50;99.90;;;;;;4951938;29;20213;-75
2023/06/23 02:42:48;;;;;;;11.85;10.65;;;17.40;99.90;;;;;;4937097;29;20225;-75
2023/06/23 02:45:19;;;;;;;12.48;10.45;;;17.40;99.90;;;;;;4946232;29;20209;-75
2023/06/23 02:47:50;;;;;;;11.57;10.38;;;17.40;99.90;;;;;;4937477;29;20205;-75
2023/06/23 02:50:37;;;;;;;12.00;10.80;;;17.40;99.90;;;;;;4941894;29;20206;-75
2023/06/23 02:53:08;;;;;;;11.15;10.05;;;17.40;99.90;;;;;;4920506;29;20223;-75
2023/06/23 02:55:39;;;;;;;14.35;11.55;;;17.50;99.90;;;;;;4947396;29;20679;-75
2023/06/23 02:58:10;;;;;;;12.50;11.30;;;17.50;99.90;;;;;;4937328;29;20688;-75
2023/06/23 03:00:38;;;;;;;11.38;10.20;;;17.50;99.90;;;;;;4936757;29;20210;-75
2023/06/23 03:03:12;;;;;;;11.85;10.00;;;17.40;99.90;;;;;;4927829;29;20222;-75
2023/06/23 03:05:39;;;;;;;11.05;9.80;;;17.40;99.90;;;;;;4948303;28;20225;-75
2023/06/23 03:08:07;;;;;;;11.88;10.65;;;17.50;99.90;;;;;;4936404;29;20209;-75
2023/06/23 03:10:35;;;;;;;11.40;10.27;;;17.40;99.90;;;;;;4935124;29;20536;-75
2023/06/23 03:13:02;;;;;;;11.68;10.32;;;17.40;99.90;;;;;;4926313;29;20600;-75
2023/06/23 03:15:31;;;;;;;12.18;10.85;;;17.40;99.90;;;;;;4942206;29;20198;-75
2023/06/23 03:18:04;;;;;;;11.93;10.55;;;17.40;99.90;;;;;;4933371;29;20214;-75
2023/06/23 03:20:38;;;;;;;11.00;9.90;;;17.50;99.90;;;;;;4946364;29;20644;-75
2023/06/23 03:23:09;;;;;;;12.93;10.75;;;17.40;99.90;;;;;;4942971;28;20225;-75
2023/06/23 03:25:39;;;;;;;12.68;11.05;;;17.40;99.90;;;;;;4929515;29;20213;-75
2023/06/23 03:28:11;;;;;;;12.60;11.32;;;17.30;99.90;;;;;;4948891;29;20209;-75
2023/06/23 03:30:43;;;;;;;13.20;11.15;;;17.30;99.90;;;;;;4949716;29;20222;-75
2023/06/23 03:33:15;;;;;;;12.63;11.38;;;17.40;99.90;;;;;;4943503;28;20226;-75
2023/06/23 03:35:46;;;;;;;13.77;11.55;;;17.50;99.90;;;;;;4943963;29;20193;-75
2023/06/23 03:38:18;;;;;;;12.55;11.18;;;17.40;99.90;;;;;;4948158;29;20202;-75
2023/06/23 03:40:51;;;;;;;14.52;12.05;;;17.40;99.90;;;;;;4929860;29;20201;-75
2023/06/23 03:43:25;;;;;;;13.60;12.20;;;17.40;99.90;;;;;;4950061;28;20224;-75
2023/06/23 03:45:56;;;;;;;13.32;11.18;;;17.50;99.90;;;;;;4932220;29;20572;-75
2023/06/23 03:48:27;;;;;;;14.38;12.88;;;17.50;99.90;;;;;;4947068;29;20208;-75
2023/06/23 03:50:58;;;;;;;15.30;13.25;;;17.40;99.90;;;;;;4945101;29;20194;-75
2023/06/23 03:53:28;;;;;;;13.95;12.52;;;17.30;99.90;;;;;;4945098;29;20591;-75
2023/06/23 03:55:57;;;;;;;14.52;13.02;;;17.30;99.90;;;;;;4951194;29;20198;-75
2023/06/23 03:58:27;;;;;;;16.33;14.15;;;17.40;99.90;;;;;;4948897;29;20213;-75
2023/06/23 04:00:56;;;;;;;15.77;14.10;;;17.40;99.90;;;;;;4948035;29;20193;-75
2023/06/23 04:03:25;;;;;;;15.90;14.20;;;17.30;99.90;;;;;;4945377;29;20218;-75
2023/06/23 04:05:54;;;;;;;15.68;13.35;;;17.40;99.90;;;;;;4948252;29;20228;-75
2023/06/23 04:08:24;;;;;;;17.20;14.02;;;17.50;99.90;;;;;;4950657;29;20209;-75
2023/06/23 04:10:56;;;;;;;14.65;13.15;;;17.60;99.90;;;;;;4947725;29;20197;-75
2023/06/23 04:14:09;;;;;;;15.65;14.00;;;17.80;99.90;;;;;;4943646;29;20205;-74
2023/06/23 04:16:40;;;;;;;14.82;13.32;;;17.90;99.90;;;;;;4930826;29;20195;-74
2023/06/23 04:19:10;;;;;;;14.95;13.38;;;18.00;99.90;;;;;;4953490;28;20663;-74
2023/06/23 04:21:40;;;;;;;16.00;13.55;;;17.90;99.90;;;;;;4949480;28;20197;-75
2023/06/23 04:24:33;;;;;;;15.10;13.48;;;17.70;99.90;;;;;;4939636;29;20208;-74
2023/06/23 04:27:02;;;;;;;15.20;13.60;;;17.80;99.90;;;;;;4938458;29;20217;-75
2023/06/23 04:29:31;;;;;;;14.63;13.10;;;17.80;99.90;;;;;;4950292;29;20209;-75
2023/06/23 04:32:02;;;;;;;14.77;13.13;;;18.00;99.90;;;;;;4947021;28;20222;-75
2023/06/23 04:34:30;;;;;;;16.00;14.10;;;18.00;99.90;;;;;;4934992;29;20201;-75
2023/06/23 04:37:20;;;;;;;15.57;12.85;;;18.00;99.90;;;;;;4933382;29;20193;-74
2023/06/23 04:39:59;;;;;;;13.95;12.55;;;18.20;99.90;;;;;;4952614;29;20197;-74
2023/06/23 04:42:33;;;;;;;14.75;13.25;;;18.00;99.90;;;;;;4946640;29;20228;-74
2023/06/23 04:45:17;;;;;;;16.75;14.13;;;17.90;99.90;;;;;;4952025;29;20201;-75
2023/06/23 04:47:48;;;;;;;16.40;13.82;;;17.90;99.90;;;;;;4951125;29;20201;-74
2023/06/23 04:50:17;;;;;;;16.42;13.85;;;17.90;99.90;;;;;;4932433;29;20213;-74
2023/06/23 04:52:53;;;;;;;16.13;13.45;;;17.90;99.90;;;;;;4952455;29;20711;-75
2023/06/23 04:55:29;;;;;;;14.80;13.30;;;17.90;99.90;;;;;;4932625;29;20198;-75
2023/06/23 04:58:03;;;;;;;17.15;13.88;;;17.80;99.90;;;;;;4949260;29;20194;-75
2023/06/23 05:00:32;;;;;;;16.65;13.93;;;17.90;99.90;;;;;;4934691;29;20684;-75
2023/06/23 05:03:00;;;;;;;16.33;13.20;;;17.90;99.90;;;;;;4947048;29;20241;-74
2023/06/23 05:05:31;;;;;;;15.85;13.35;;;17.90;99.90;;;;;;4950221;29;20202;-74
2023/06/23 05:08:31;;;;;;;15.88;14.27;;;17.80;99.90;;;;;;4948904;29;20749;-75
2023/06/23 05:11:05;;;;;;;16.05;13.80;;;17.80;99.90;;;;;;4948737;29;20210;-75
2023/06/23 05:13:34;;;;;;;16.65;14.05;;;17.90;99.90;;;;;;4950042;28;20232;-75
2023/06/23 05:16:03;;;;;;;16.17;14.48;;;17.80;99.90;;;;;;4943803;29;20205;-75
2023/06/23 05:18:32;;;;;;;17.35;15.02;;;17.70;99.90;;;;;;4944252;29;20221;-75
2023/06/23 05:21:01;;;;;;;16.20;14.50;;;17.90;99.90;;;;;;4949827;29;20213;-75
2023/06/23 05:23:30;;;;;;;16.08;14.27;;;17.80;99.90;;;;;;4945780;29;20237;-75
2023/06/23 05:26:00;;;;;;;14.63;13.13;;;17.80;99.90;;;;;;4946074;29;20207;-75
2023/06/23 05:28:31;;;;;;;18.98;13.40;;;17.80;99.90;;;;;;4929677;29;20217;-75
2023/06/23 05:31:00;;;;;;;17.58;14.82;;;17.90;99.90;;;;;;4949818;29;20224;-75
2023/06/23 05:33:30;;;;;;;15.77;14.18;;;17.90;99.90;;;;;;4931264;29;20230;-75
2023/06/23 05:35:59;;;;;;;16.88;15.10;;;17.90;99.90;;;;;;4929052;29;20202;-75
2023/06/23 05:38:28;;;;;;;19.08;13.93;;;17.90;99.90;;;;;;4946008;29;20206;-74
2023/06/23 05:40:55;;;;;;;19.02;14.50;;;18.20;99.90;;;;;;4948084;29;20657;-74
2023/06/23 05:43:24;;;;;;;17.90;14.10;;;17.90;99.90;;;;;;4945736;28;20283;-75
2023/06/23 05:45:54;;;;;;;14.85;13.27;;;18.40;99.90;;;;;;4946787;29;20209;-75
2023/06/23 05:48:28;;;;;;;14.18;12.85;;;18.30;99.90;;;;;;4948325;29;20206;-75
2023/06/23 05:50:57;;;;;;;16.83;12.93;;;18.20;99.90;;;;;;4943047;29;20193;-75
2023/06/23 05:53:26;;;;;;;13.18;11.55;;;18.60;99.90;;;;;;4941473;29;20224;-75
2023/06/23 05:56:01;;;;;;;12.65;10.90;;;18.60;99.90;;;;;;4944290;29;20212;-75
2023/06/23 05:58:34;;;;;;;14.82;12.40;;;18.90;99.90;;;;;;4941118;29;20197;-75
2023/06/23 06:01:08;;;;;;;14.13;12.05;;;18.80;99.90;;;;;;4927636;29;20209;-75
2023/06/23 06:03:40;;;;;;;14.98;11.77;;;18.70;99.90;;;;;;4921984;29;20222;-75
2023/06/23 06:06:09;;;;;;;16.00;11.98;;;18.80;99.90;;;;;;4938858;28;20209;-77
2023/06/23 06:08:39;;;;;;;16.33;11.93;;;18.80;99.90;;;;;;4925373;29;20241;-75
2023/06/23 06:11:09;;;;;;;13.80;11.02;;;18.80;99.90;;;;;;4940096;29;20213;-76
2023/06/23 06:13:43;;;;;;;14.70;11.77;;;18.90;99.90;;;;;;4924867;29;20229;-76
2023/06/23 06:16:11;;;;;;;13.52;11.02;;;19.00;99.90;;;;;;4942685;29;20206;-75
2023/06/23 06:18:39;;;;;;;13.32;12.02;;;19.10;99.90;;;;;;4944145;29;20224;-76
2023/06/23 06:21:07;;;;;;;12.18;10.98;;;19.20;99.90;;;;;;4942902;29;20196;-76
2023/06/23 06:23:36;;;;;;;14.88;12.60;;;19.20;99.90;;;;;;4927201;29;20236;-77
2023/06/23 06:26:06;;;;;;;11.93;10.80;;;19.30;99.90;;;;;;4931168;29;20205;-76
2023/06/23 06:28:36;;;;;;;13.13;11.63;;;19.60;99.90;;;;;;4950071;29;20664;-77
2023/06/23 06:31:07;;;;;;;13.90;11.02;;;19.40;99.90;;;;;;4927685;29;20206;-77
2023/06/23 06:33:36;;;;;;;14.38;11.05;;;19.50;99.90;;;;;;4931184;29;20228;-79
2023/06/23 06:36:06;;;;;;;13.02;11.00;;;19.50;99.90;;;;;;4944865;29;20202;-80
2023/06/23 06:38:36;;;;;;;12.68;11.18;;;19.70;99.90;;;;;;4947179;28;20209;-82
2023/06/23 06:41:06;;;;;;;13.55;11.32;;;19.90;99.90;;;;;;4942689;29;20217;-79
2023/06/23 06:43:44;;;;;;;11.57;9.95;;;19.80;99.90;;;;;;4931026;29;20225;-78
2023/06/23 06:46:14;;;;;;;12.73;10.82;;;19.80;99.90;;;;;;4929990;29;20206;-78
2023/06/23 06:48:45;;;;;;;14.07;10.82;;;19.80;99.90;;;;;;4931908;29;20214;-77
2023/06/23 06:51:15;;;;;;;11.73;10.48;;;19.80;99.90;;;;;;4931143;29;20191;-78
2023/06/23 06:53:51;;;;;;;11.60;10.20;;;19.70;99.90;;;;;;4928895;29;20590;-77
2023/06/23 06:56:19;;;;;;;13.32;10.45;;;19.90;99.90;;;;;;4945144;29;20198;-76
2023/06/23 06:58:49;;;;;;;11.55;10.27;;;19.90;99.90;;;;;;4944691;29;20197;-77
2023/06/23 07:01:18;;;;;;;10.80;9.27;;;19.90;99.90;;;;;;4944329;29;20199;-76
2023/06/23 07:03:47;;;;;;;10.68;9.30;;;20.00;99.90;;;;;;4926961;29;20228;-77
2023/06/23 07:06:15;;;;;;;11.88;10.43;;;20.10;99.90;;;;;;4926726;29;20214;-77
2023/06/23 07:08:43;;;;;;;11.35;10.07;;;20.00;99.90;;;;;;4927021;29;20366;-77
2023/06/23 07:11:13;;;;;;;12.20;10.00;;;19.80;99.90;;;;;;4944166;29;20209;-76
2023/06/23 07:13:40;;;;;;;10.73;9.73;;;19.60;99.90;;;;;;4924065;29;20217;-77
2023/06/23 07:16:07;;;;;;;10.57;9.48;;;19.70;99.90;;;;;;4931321;29;20206;-76
2023/06/23 07:18:36;;;;;;;10.80;9.57;;;19.70;99.90;;;;;;4947810;29;20224;-77
2023/06/23 07:21:04;;;;;;;10.43;9.30;;;19.70;99.90;;;;;;4942230;29;20212;-77
2023/06/23 07:23:32;;;;;;;13.40;10.13;;;19.70;99.90;;;;;;4945102;29;20233;-77
2023/06/23 07:25:59;;;;;;;10.05;8.23;;;19.80;99.90;;;;;;4932934;29;20220;-77
2023/06/23 07:28:27;;;;;;;10.70;8.95;;;19.90;99.90;;;;;;4934562;29;20228;-77
2023/06/23 07:30:55;;;;;;;9.75;8.85;;;20.00;99.90;;;;;;4937653;29;20205;-77
2023/06/23 07:33:23;;;;;;;10.63;8.32;;;20.20;99.90;;;;;;4948536;28;20233;-77
2023/06/23 07:35:53;;;;;;;9.55;8.52;;;20.30;99.90;;;;;;4952261;29;20194;-77
2023/06/23 07:38:21;;;;;;;9.80;8.18;;;20.50;99.90;;;;;;4950550;29;20656;-77
2023/06/23 07:40:57;;;;;;;8.95;7.53;;;20.50;99.90;;;;;;4933342;29;20208;-78
2023/06/23 07:43:43;;;;;;;10.75;8.48;;;20.60;99.90;;;;;;4921596;29;20221;-77
2023/06/23 07:46:10;;;;;;;8.55;7.50;;;20.30;99.90;;;;;;4940789;29;20568;-77
2023/06/23 07:48:38;;;;;;;10.10;7.85;;;20.20;99.90;;;;;;4943390;29;20240;-77
2023/06/23 07:51:09;;;;;;;8.93;7.55;;;20.30;99.90;;;;;;4925537;29;20210;-77
2023/06/23 07:53:37;;;;;;;9.38;8.13;;;20.20;99.90;;;;;;4933467;28;20232;-77
2023/06/23 07:56:04;;;;;;;10.93;7.28;;;20.20;99.90;;;;;;4943285;29;20204;-78
2023/06/23 07:58:32;;;;;;;8.45;7.38;;;20.20;99.90;;;;;;4930118;29;20198;-77
2023/06/23 08:00:59;;;;;;;7.25;6.55;;;20.30;99.90;;;;;;4945396;29;20220;-77
2023/06/23 08:03:27;;;;;;;8.75;6.18;;;20.40;99.90;;;;;;4940391;28;20232;-77
2023/06/23 08:05:56;;;;;;;6.65;6.03;;;20.30;99.90;;;;;;4927581;28;20209;-77
2023/06/23 08:08:25;;;;;;;5.97;5.38;;;20.40;99.90;;;;;;4921444;29;20226;-77
2023/06/23 08:10:52;;;;;;;8.05;6.00;;;20.60;99.90;;;;;;4922418;29;20194;-77
2023/06/23 08:13:20;;;;;;;7.20;5.25;;;20.70;99.90;;;;;;4927806;29;20221;-78
2023/06/23 08:15:47;;;;;;;7.82;5.88;;;20.70;99.90;;;;;;4942010;29;20206;-77
2023/06/23 08:18:15;;;;;;;6.38;5.40;;;20.80;99.90;;;;;;4940510;29;20198;-77
2023/06/23 08:20:44;;;;;;;5.43;4.65;;;20.90;99.90;;;;;;4927342;29;20228;-77
2023/06/23 08:23:12;;;;;;;5.43;4.93;;;20.80;99.90;;;;;;4938816;29;20731;-78
2023/06/23 08:25:41;;;;;;;5.07;4.30;;;20.80;99.90;;;;;;4941336;29;20220;-78
2023/06/23 08:28:09;;;;;;;5.15;4.30;;;20.80;99.90;;;;;;4929346;29;20225;-77
2023/06/23 08:30:37;;;;;;;5.65;4.28;;;20.90;99.90;;;;;;4926764;29;20209;-80
2023/06/23 08:33:04;;;;;;;6.78;4.95;;;21.10;99.90;;;;;;4935439;29;20225;-75
2023/06/23 08:35:32;;;;;;;5.80;5.25;;;21.20;99.90;;;;;;4923366;29;20747;-75
2023/06/23 08:37:59;;;;;;;6.75;5.20;;;21.10;99.90;;;;;;4936030;29;20203;-75
2023/06/23 08:40:27;;;;;;;7.03;5.20;;;21.10;99.90;;;;;;4944149;29;20203;-75
2023/06/23 08:42:56;;;;;;;5.55;5.05;;;21.00;99.90;;;;;;4936018;28;20225;-75
2023/06/23 08:45:25;;;;;;;5.22;4.75;;;21.10;99.90;;;;;;4935123;29;20207;-75
2023/06/23 08:47:56;;;;;;;5.97;4.25;;;21.30;99.90;;;;;;4927314;29;20221;-75
2023/06/23 08:50:24;;;;;;;7.07;5.35;;;21.20;99.90;;;;;;4939818;29;20206;-75
2023/06/23 08:52:51;;;;;;;5.53;4.63;;;21.40;99.90;;;;;;4940565;29;20229;-74
2023/06/23 08:55:19;;;;;;;5.53;4.57;;;21.40;99.90;;;;;;4938727;29;20205;-75
2023/06/23 08:57:50;;;;;;;5.28;4.78;;;21.30;99.90;;;;;;4943541;29;20202;-75
2023/06/23 09:00:19;;;;;;;5.13;4.60;;;21.40;99.90;;;;;;4943234;29;20186;-75
2023/06/23 09:02:47;;;;;;;4.45;3.58;;;21.40;99.90;;;;;;4922247;28;20228;-75
2023/06/23 09:05:14;;;;;;;5.25;4.07;;;21.20;99.90;;;;;;4925962;29;20202;-75
2023/06/23 09:07:42;;;;;;;6.22;4.28;;;21.40;99.90;;;;;;4931987;29;20556;-75
2023/06/23 09:10:12;;;;;;;5.70;3.50;;;21.70;99.90;;;;;;4927493;29;20208;-75
2023/06/23 09:12:45;;;;;;;5.35;3.83;;;21.50;99.90;;;;;;4927788;29;20228;-75
2023/06/23 09:15:14;;;;;;;4.47;3.45;;;21.50;99.90;;;;;;4942286;29;20213;-75
2023/06/23 09:17:45;;;;;;;5.03;3.75;;;21.60;99.90;;;;;;4949255;29;20202;-75
2023/06/23 09:20:14;;;;;;;4.57;4.18;;;21.70;99.90;;;;;;4931928;29;20209;-74
2023/06/23 09:22:42;;;;;;;5.80;3.90;;;21.70;99.90;;;;;;4934943;29;20236;-75
2023/06/23 09:25:10;;;;;;;4.80;4.40;;;21.70;99.90;;;;;;4952479;29;20205;-75
2023/06/23 09:27:42;;;;;;;5.38;4.32;;;21.60;99.90;;;;;;4935408;29;20208;-75
2023/06/23 09:30:11;;;;;;;7.20;4.90;;;21.70;99.90;;;;;;4954191;29;20210;-75
2023/06/23 09:32:39;;;;;;;5.78;3.92;;;21.90;99.90;;;;;;4926044;29;20221;-75
2023/06/23 09:35:10;;;;;;;5.22;4.18;;;21.80;99.90;;;;;;4934934;29;20209;-75
2023/06/23 09:37:38;;;;;;;4.63;3.92;;;21.80;99.90;;;;;;4947103;29;20194;-75
2023/06/23 09:40:26;;;;;;;5.43;3.60;;;22.00;99.90;;;;;;4944704;29;20199;-75
2023/06/23 09:42:57;;;;;;;4.38;3.58;;;22.10;99.90;;;;;;4948106;29;20232;-75
2023/06/23 09:45:25;;;;;;;4.88;3.80;;;21.90;99.90;;;;;;4945924;29;20225;-75
2023/06/23 09:47:52;;;;;;;5.78;4.60;;;22.10;99.90;;;;;;4932940;29;20218;-75
2023/06/23 09:50:25;;;;;;;3.85;3.42;;;22.10;99.90;;;;;;4950613;29;20655;-74
2023/06/23 09:53:01;;;;;;;4.22;3.83;;;22.20;99.90;;;;;;4952328;28;20218;-75
2023/06/23 09:55:31;;;;;;;6.35;5.75;;;22.30;99.90;;;;;;4951018;29;20201;-75
2023/06/23 09:57:59;;;;;;;5.03;4.50;;;22.10;99.90;;;;;;4950023;29;20212;-75
2023/06/23 10:00:30;;;;;;;4.38;3.97;;;21.90;99.90;;;;;;4948352;29;20201;-75
2023/06/23 10:03:04;;;;;;;5.35;4.60;;;21.90;99.90;;;;;;4948691;28;20701;-75
2023/06/23 10:05:37;;;;;;;5.88;4.65;;;22.10;99.90;;;;;;4946940;29;20202;-75
2023/06/23 10:08:09;;;;;;;6.57;5.82;;;22.30;99.90;;;;;;4947199;29;20198;-75
2023/06/23 10:10:55;;;;;;;6.47;5.88;;;22.20;99.90;;;;;;4946756;29;20217;-75
2023/06/23 10:13:23;;;;;;;7.30;5.65;;;22.20;99.90;;;;;;4945781;28;20717;-75
2023/06/23 10:15:51;;;;;;;6.90;6.20;;;22.20;99.90;;;;;;4928675;29;20202;-75
2023/06/23 10:18:19;;;;;;;8.38;6.97;;;22.10;99.90;;;;;;4945023;29;20216;-74
2023/06/23 10:20:49;;;;;;;6.18;5.57;;;22.10;99.90;;;;;;4935137;29;20197;-75
2023/06/23 10:23:25;;;;;;;6.22;5.63;;;22.20;99.90;;;;;;4942699;28;20229;-75
2023/06/23 10:25:57;;;;;;;6.53;4.75;;;22.20;99.90;;;;;;4948767;28;20209;-75
2023/06/23 10:28:28;;;;;;;6.75;4.70;;;22.40;99.90;;;;;;4952689;28;20217;-75
2023/06/23 10:30:56;;;;;;;5.55;4.50;;;22.40;99.90;;;;;;4950981;29;20202;-75
2023/06/23 10:33:26;;;;;;;5.75;4.97;;;22.70;99.90;;;;;;4952736;28;20225;-75
2023/06/23 10:35:55;;;;;;;5.93;5.32;;;22.80;99.90;;;;;;4930098;29;20206;-75
2023/06/23 10:38:24;;;;;;;6.97;5.65;;;22.90;99.90;;;;;;4945221;29;20203;-75
2023/06/23 10:40:52;;;;;;;6.05;5.47;;;22.50;99.90;;;;;;4948168;29;20201;-75
2023/06/23 10:43:20;;;;;;;7.00;5.47;;;22.20;99.90;;;;;;4930022;29;20580;-75
2023/06/23 10:45:49;;;;;;;6.30;5.68;;;22.30;99.90;;;;;;4944239;29;20225;-75
2023/06/23 10:48:17;;;;;;;5.97;5.43;;;22.40;99.90;;;;;;4952759;29;20205;-75
2023/06/23 10:50:47;;;;;;;4.72;4.20;;;22.70;99.90;;;;;;4948680;29;20221;-75
2023/06/23 10:53:18;;;;;;;6.78;5.22;;;22.90;99.90;;;;;;4953391;28;20220;-75
2023/06/23 10:55:47;;;;;;;6.28;5.30;;;23.10;99.90;;;;;;4951973;29;20194;-75
2023/06/23 10:58:17;;;;;;;7.00;6.20;;;23.10;99.90;;;;;;4951113;29;20264;-75
2023/06/23 11:00:46;;;;;;;6.63;5.82;;;23.20;99.90;;;;;;4947195;29;20679;-75
2023/06/23 11:03:28;;;;;;;7.32;5.70;;;23.30;99.90;;;;;;4928492;29;20225;-75
2023/06/23 11:05:57;;;;;;;5.35;4.85;;;23.20;99.90;;;;;;4950140;29;20209;-75
2023/06/23 11:08:33;;;;;;;6.95;6.28;;;23.00;99.90;;;;;;4952517;29;20564;-75
2023/06/23 11:11:04;;;;;;;6.47;5.53;;;23.00;99.90;;;;;;4932430;29;20220;-75
2023/06/23 11:13:47;;;;;;;5.20;4.80;;;23.00;99.90;;;;;;4945790;29;20221;-75
2023/06/23 11:16:17;;;;;;;4.55;4.15;;;22.80;99.90;;;;;;4944672;29;20205;-75
2023/06/23 11:18:53;;;;;;;5.28;4.78;;;22.80;99.90;;;;;;4931942;29;20206;-76
2023/06/23 11:21:30;;;;;;;5.97;4.82;;;23.00;99.90;;;;;;4929112;29;20213;-74
2023/06/23 11:24:20;;;;;;;6.03;5.22;;;23.30;99.90;;;;;;4951256;29;20204;-75
2023/06/23 11:27:01;;;;;;;5.22;3.70;;;23.60;99.90;;;;;;4943893;28;20653;-74
2023/06/23 11:29:28;;;;;;;4.30;3.67;;;23.50;99.90;;;;;;4953207;29;20205;-75
2023/06/23 11:32:07;;;;;;;4.40;4.00;;;23.60;99.80;;;;;;4950305;29;20217;-74
2023/06/23 11:34:52;;;;;;;5.47;4.72;;;23.70;99.30;;;;;;4940266;29;20591;-74
2023/06/23 11:37:20;;;;;;;5.20;4.75;;;23.70;99.90;;;;;;4929816;29;20197;-74
2023/06/23 11:39:53;;;;;;;5.45;4.90;;;23.50;99.90;;;;;;4948294;29;20202;-74
2023/06/23 11:42:21;;;;;;;4.38;3.88;;;23.60;99.90;;;;;;4945941;29;20229;-74
2023/06/23 11:44:48;;;;;;;4.85;4.32;;;23.90;99.90;;;;;;4928254;29;20206;-74
2023/06/23 11:47:16;;;;;;;4.50;3.65;;;24.10;99.90;;;;;;4929519;29;20302;-74
2023/06/23 11:49:44;;;;;;;3.85;3.55;;;24.10;97.30;;;;;;4924311;29;20244;-75
2023/06/23 11:52:13;;;;;;;4.15;3.65;;;24.30;98.00;;;;;;4940916;28;20218;-74
2023/06/23 11:54:41;;;;;;;5.07;4.53;;;24.40;97.40;;;;;;4938148;29;20198;-75
2023/06/23 11:57:10;;;;;;;4.28;3.72;;;24.50;97.30;;;;;;4940912;29;20205;-74
2023/06/23 11:59:39;;;;;;;5.18;3.95;;;24.40;97.20;;;;;;4924808;29;20207;-75
2023/06/23 12:02:07;;;;;;;3.80;3.50;;;24.30;97.70;;;;;;4939427;29;20248;-75
2023/06/23 12:04:35;;;;;;;3.95;3.55;;;24.50;97.00;;;;;;4943703;29;20206;-74
2023/06/23 12:07:03;;;;;;;4.15;3.45;;;24.40;96.90;;;;;;4925164;29;20203;-75
2023/06/23 12:09:31;;;;;;;4.30;3.90;;;24.80;97.10;;;;;;4938069;28;20210;-74
2023/06/23 12:11:59;;;;;;;4.20;3.80;;;24.70;96.20;;;;;;4945528;29;20218;-74
2023/06/23 12:14:34;;;;;;;3.80;3.50;;;24.60;96.20;;;;;;4927953;28;20208;-74
2023/06/23 12:17:09;;;;;;;4.72;3.53;;;24.70;95.60;;;;;;4941755;29;20212;-75
2023/06/23 12:19:38;;;;;;;4.55;3.67;;;24.80;95.20;;;;;;4943492;29;20197;-74
2023/06/23 12:22:15;;;;;;;5.50;4.32;;;25.00;95.40;;;;;;4938885;29;20247;-75
2023/06/23 12:24:43;;;;;;;4.63;4.22;;;24.50;95.10;;;;;;4940211;29;20209;-74
2023/06/23 12:27:11;;;;;;;4.55;3.88;;;24.50;94.90;;;;;;4938919;29;20201;-74
2023/06/23 12:29:40;;;;;;;4.40;4.00;;;24.70;95.30;;;;;;4928078;29;20198;-74
2023/06/23 12:32:10;;;;;;;4.38;3.97;;;24.50;95.00;;;;;;4950501;29;20232;-75
2023/06/23 12:34:44;;;;;;;4.13;3.83;;;24.60;94.90;;;;;;4922428;29;20210;-75
2023/06/23 12:37:14;;;;;;;3.85;3.50;;;24.70;93.80;;;;;;4946058;29;20215;-75
2023/06/23 12:39:41;;;;;;;5.28;3.80;;;24.80;93.20;;;;;;4934320;29;20690;-75
2023/06/23 12:42:09;;;;;;;2.90;2.65;;;24.90;93.70;;;;;;4945430;29;20228;-74
2023/06/23 12:44:40;;;;;;;3.83;3.20;;;24.90;91.20;;;;;;4954620;29;20197;-74
2023/06/23 12:47:08;;;;;;;3.38;3.00;;;25.10;91.90;;;;;;4946811;29;20204;-74
2023/06/23 12:49:38;;;;;;;3.58;3.05;;;25.50;91.50;;;;;;4949821;28;20209;-75
2023/06/23 12:52:10;;;;;;;3.92;3.40;;;25.30;91.50;;;;;;4951710;28;20590;-75
2023/06/23 12:54:37;;;;;;;3.55;3.03;;;25.60;91.00;;;;;;4933547;29;20217;-75
2023/06/23 12:57:09;;;;;;;3.33;3.03;;;25.90;90.90;;;;;;4947708;29;20212;-75
2023/06/23 12:59:36;;;;;;;2.80;2.60;;;25.90;89.20;;;;;;4933837;29;20213;-75